Legend :    VFR   Marginal VFR   IFR   Intensive IFR   Very Intensive IFR
Visi :
Ceiling :
>= 8 km
>= 3000ft
5 to 8 km
1000 to 3000 ft
1500m to 5 km
500 to 1000 ft
800 to 1500m
200 to 500 ft
< 800m
< 200 ft
Symbols :   Thunderstorms  Fog  Heavy snow  Heavy precipitations  Wind > 20 kt
SIGMETs :     Misc.  Thunderstorms  Icing  Turbulence  Mountain Waves  Volcanic Ashes







- Airport Elevation : 876 ft
- IATA code : MBX


LJMB - Maribor

CURRENT METAR :
  • 251200Z 22011KT CAVOK 26/13 Q1012

EXPIRED METARs :
  • 251130Z 22011KT CAVOK 25/12 Q1013
  • 251100Z 21011KT CAVOK 25/12 Q1013
  • 251030Z 22010KT 180V250 CAVOK 24/12 Q1013
  • 251000Z 20008KT 170V240 CAVOK 24/12 Q1014
  • 250930Z 20007KT 160V240 CAVOK 23/11 Q1014

TAF TAF LJMB
Valid from the 25 at 12:00 until the 26 at 12:00 UTC


251100Z 2512/2612 21010KT CAVOK
TEMPO 2512/2517 21015KT
BECMG 2518/2521 VRB02KT
BECMG 2602/2605 BKN040
BECMG 2606/2609 09004KT
TEMPO 2610/2612 SHRA SCT033TCU BKN040
No reported NOTAMs for that airfield.


LOGIN :  

Disclaimer |     EN      FR      IT 



MET'MAP, your aeronautical weather chart ! - Copyright ORBIFLY December 2007 - Disclaimer


ORBIFLY MET'MAP TEAM :

Programming & Development : Alexandra Zaïnal
Concept & Development : Baudouin d'Aumeries
Co-Development & Prog : Marc-Olivier Méhu
Technical & hardware support : Manuel Goepfert

Contact : metmap@orbifly.com




SOURCES & CREDITS :

   NOAA